createdAt,value
2022-10-25T17:27:39.805Z,6.27
2022-10-25T17:30:09.562Z,6.00
2022-10-25T17:32:37.371Z,6.07
2022-10-25T17:35:06.307Z,6.23
2022-10-25T17:37:34.003Z,5.77
2022-10-25T17:40:01.529Z,6.40
2022-10-25T17:42:29.177Z,6.43
2022-10-25T17:44:57.967Z,6.40
2022-10-25T17:47:25.424Z,7.13
2022-10-25T17:49:54.289Z,8.37
2022-10-25T17:52:21.655Z,8.33
2022-10-25T17:54:49.120Z,7.80
2022-10-25T17:57:16.555Z,8.40
2022-10-25T17:59:43.969Z,8.47
2022-10-25T18:02:12.820Z,7.57
2022-10-25T18:04:53.739Z,7.50
2022-10-25T18:07:29.979Z,7.33
2022-10-25T18:10:00.072Z,7.80
2022-10-25T18:12:27.725Z,6.73
2022-10-25T18:14:55.706Z,7.83
2022-10-25T18:17:24.670Z,6.90
2022-10-25T18:19:52.079Z,7.13
2022-10-25T18:22:21.262Z,7.73
2022-10-25T18:24:48.895Z,6.93
2022-10-25T18:27:16.289Z,8.50
2022-10-25T18:29:43.790Z,7.67
2022-10-25T18:32:11.167Z,7.63
2022-10-25T18:34:39.861Z,7.83
2022-10-25T18:37:07.265Z,6.83
2022-10-25T18:39:34.626Z,7.33
2022-10-25T18:42:02.006Z,9.90
2022-10-25T18:44:29.396Z,7.30
2022-10-25T18:46:56.811Z,6.90
2022-10-25T18:49:24.221Z,7.03
2022-10-25T18:51:53.239Z,6.37
2022-10-25T18:54:20.640Z,6.13
2022-10-25T18:56:48.040Z,6.47
2022-10-25T18:59:15.432Z,5.70
2022-10-25T19:01:42.920Z,6.30
2022-10-25T19:04:10.385Z,5.73
2022-10-25T19:06:37.852Z,5.90
2022-10-25T19:09:06.610Z,5.00
2022-10-25T19:11:35.134Z,6.70
2022-10-25T19:14:03.934Z,5.80
2022-10-25T19:16:31.348Z,6.53
2022-10-25T19:19:02.307Z,8.80
2022-10-25T19:21:29.726Z,6.53
2022-10-25T19:23:57.116Z,6.50
2022-10-25T19:26:25.827Z,6.77
2022-10-25T19:28:57.653Z,6.50
2022-10-25T19:31:25.273Z,7.37
2022-10-25T19:33:53.661Z,7.33
2022-10-25T19:36:21.376Z,7.17
2022-10-25T19:38:49.252Z,6.93
2022-10-25T19:41:18.912Z,7.47
2022-10-25T19:43:48.234Z,6.90
2022-10-25T19:46:16.617Z,6.20
2022-10-25T19:48:44.029Z,6.70
2022-10-25T19:51:12.789Z,7.10
2022-10-25T19:53:40.834Z,7.13
2022-10-25T19:56:10.605Z,6.30
2022-10-25T19:58:38.258Z,7.53
2022-10-25T20:01:09.096Z,8.03
2022-10-25T20:03:37.590Z,8.03
2022-10-25T20:06:08.253Z,7.77
2022-10-25T20:08:37.191Z,7.30
2022-10-25T20:11:05.617Z,8.50
2022-10-25T20:13:33.237Z,7.93
2022-10-25T20:16:00.708Z,8.27
2022-10-25T20:18:32.262Z,8.23
2022-10-25T20:21:01.793Z,10.73
2022-10-25T20:23:29.738Z,9.97
2022-10-25T20:25:57.139Z,9.00
2022-10-25T20:28:24.702Z,7.97
2022-10-25T20:30:52.623Z,9.57
2022-10-25T20:33:20.412Z,9.60
2022-10-25T20:35:49.127Z,9.00
2022-10-25T20:38:16.945Z,8.97
2022-10-25T20:40:45.236Z,8.90
2022-10-25T20:43:12.670Z,8.90
2022-10-25T20:45:41.383Z,10.30
2022-10-25T20:48:11.141Z,9.97
2022-10-25T20:50:38.532Z,9.73
2022-10-25T20:53:10.895Z,9.70
2022-10-25T20:55:38.902Z,9.67
2022-10-25T20:58:06.398Z,9.63
2022-10-25T21:00:34.057Z,9.77
2022-10-25T21:03:01.896Z,9.77
2022-10-25T21:05:29.353Z,9.40
2022-10-25T21:07:56.749Z,10.57
2022-10-25T21:10:26.855Z,9.80
2022-10-25T21:12:54.267Z,9.67
2022-10-25T21:15:21.656Z,9.40
2022-10-25T21:17:50.265Z,10.63
2022-10-25T21:20:18.072Z,10.53
2022-10-25T21:22:47.533Z,10.67
2022-10-25T21:25:15.437Z,10.70
2022-10-25T21:27:44.226Z,11.00
2022-10-25T21:30:12.137Z,10.57
2022-10-25T21:32:39.796Z,10.83
2022-10-25T21:35:07.688Z,11.80
2022-10-25T21:37:37.211Z,10.70
2022-10-25T21:40:04.967Z,12.77
2022-10-25T21:42:34.904Z,12.33
2022-10-25T21:45:03.812Z,11.53
2022-10-25T21:47:31.263Z,11.57
2022-10-25T21:49:58.659Z,10.83
2022-10-25T21:52:26.211Z,11.30
2022-10-25T21:54:53.632Z,12.00
2022-10-25T21:57:21.032Z,12.43
2022-10-25T21:59:48.421Z,14.33
2022-10-25T22:02:19.669Z,12.40
2022-10-25T22:04:47.203Z,13.67
2022-10-25T22:07:14.624Z,11.97
2022-10-25T22:09:42.091Z,11.83
2022-10-25T22:12:09.508Z,12.57
2022-10-25T22:14:37.072Z,12.33
2022-10-25T22:17:04.449Z,12.20
2022-10-25T22:19:33.175Z,13.73
2022-10-25T22:22:00.577Z,12.97
2022-10-25T22:24:27.970Z,13.53
2022-10-25T22:26:55.416Z,12.20
2022-10-25T22:29:22.808Z,11.77
2022-10-25T22:31:50.197Z,11.60
2022-10-25T22:34:17.588Z,12.70
2022-10-25T22:36:46.351Z,12.03
2022-10-25T22:39:13.723Z,12.10
2022-10-25T22:41:41.222Z,12.37
2022-10-25T22:44:08.783Z,11.63
2022-10-25T22:46:36.937Z,11.90
2022-10-25T22:49:06.803Z,11.13
2022-10-25T22:51:35.015Z,11.70
2022-10-25T22:54:04.288Z,10.93
2022-10-25T22:56:32.283Z,10.07
2022-10-25T22:59:01.355Z,10.20
2022-10-25T23:01:30.410Z,10.63
2022-10-25T23:03:59.895Z,11.77
2022-10-25T23:06:29.179Z,10.80
2022-10-25T23:08:58.102Z,11.00
2022-10-25T23:11:28.957Z,10.30
2022-10-25T23:13:57.856Z,10.30
2022-10-25T23:16:27.610Z,12.10
2022-10-25T23:18:55.382Z,11.13
2022-10-25T23:21:24.148Z,10.57
2022-10-25T23:23:52.740Z,11.73
2022-10-25T23:26:22.969Z,12.37
2022-10-25T23:28:52.094Z,11.87
2022-10-25T23:31:19.684Z,11.63
2022-10-25T23:33:51.601Z,11.33
2022-10-25T23:36:21.187Z,12.67
2022-10-25T23:38:53.120Z,11.90
2022-10-25T23:41:22.577Z,12.40
2022-10-25T23:43:50.110Z,11.57
2022-10-25T23:46:19.136Z,11.90
2022-10-25T23:48:46.951Z,11.10
2022-10-25T23:51:17.387Z,11.87
2022-10-25T23:53:45.535Z,12.07
2022-10-25T23:56:14.532Z,12.07
2022-10-25T23:58:42.436Z,10.93
